Eviapetrol II — SY6858 — position and weather

sailwx.info

Track history (hours):
 
Tides and Currents Weather Stations Pressure Air Temp Water Temp Dewpoint Dewpoint Depression Visibility Wind Speed Wind Dir Waves Ship Positions

Eviapetrol II

Last reported at 2016-Feb-07 14:08 UTC. Time now 2016-Feb-08 07:57 UTC.
Position N 37°44' E 024°17'.

Length 78 m; draft 4.3 m.

Type: Tanker. MMSI: 240493000.

Date/timePositionNaut miles runAvg speedWind from/ knotsBaromVisibWave heightAir tempDewpointWater temp
2016-Feb-07 14:08N 37°44' E 024°17'22 7.9
2016-Feb-07 11:23N 37°38' E 023°51'7 8.7
2016-Feb-07 10:33N 37°40' E 023°42'9 9.1
2016-Feb-07 09:33N 37°48' E 023°37'9 8.9
2016-Feb-07 08:33N 37°57' E 023°35'5 4.8
2016-Feb-07 07:33N 38°02' E 023°36'0 0.0
2016-Feb-07 02:17N 38°02' E 023°36'0 0.0
2016-Feb-07 01:29N 38°02' E 023°36'0 0.0
2016-Feb-07 00:29N 38°02' E 023°36'0 0.0
2016-Feb-06 23:32N 38°02' E 023°36'0 0.0
2016-Feb-06 22:32N 38°02' E 023°36'0 0.0
2016-Feb-06 21:17N 38°02' E 023°36'0 0.0
2016-Feb-06 20:29N 38°02' E 023°36'0 0.0
2016-Feb-06 19:32N 38°02' E 023°36'0 0.0
2016-Feb-06 18:32N 38°02' E 023°36'0 0.0
2016-Feb-06 17:32N 38°02' E 023°36'0 0.5
2016-Feb-06 16:33N 38°02' E 023°35'3 2.6
2016-Feb-06 15:33N 38°02' E 023°32'0 0.0
2016-Feb-06 14:33N 38°02' E 023°32'0 0.0
2016-Feb-06 13:33N 38°02' E 023°32'0 0.0
2016-Feb-06 12:33N 38°02' E 023°32'0 0.0
2016-Feb-06 11:33N 38°02' E 023°32'0 0.0
2016-Feb-06 10:33N 38°02' E 023°32'0 0.0
2016-Feb-06 09:33N 38°02' E 023°32'0 0.0
2016-Feb-06 08:33N 38°02' E 023°32'0 0.0
2016-Feb-06 07:34N 38°02' E 023°32'0 0.0
2016-Feb-06 06:33N 38°02' E 023°32'0 0.0
2016-Feb-06 05:33N 38°02' E 023°32'0 0.0
2016-Feb-06 04:33N 38°02' E 023°32'0 0.0
2016-Feb-06 03:33N 38°02' E 023°32'0 0.0
2016-Feb-06 02:32N 38°02' E 023°32'0 0.0
2016-Feb-06 01:29N 38°02' E 023°32'0 0.0
2016-Feb-06 00:27N 38°02' E 023°32'0 0.0
2016-Feb-05 22:33N 38°02' E 023°32'0 0.0
2016-Feb-05 21:33N 38°02' E 023°32'0 0.0
2016-Feb-05 20:33N 38°02' E 023°32'0 0.0
2016-Feb-05 19:33N 38°02' E 023°32'0 0.0
2016-Feb-05 18:33N 38°02' E 023°32'0 0.0
2016-Feb-05 17:33N 38°02' E 023°32'0 0.0
2016-Feb-05 16:33N 38°02' E 023°32'0 0.0
2016-Feb-05 15:33N 38°02' E 023°32'0 0.0
2016-Feb-05 14:34N 38°02' E 023°32'0 0.0
2016-Feb-05 13:33N 38°02' E 023°32'0 0.0
2016-Feb-05 12:33N 38°02' E 023°32'0 0.0
2016-Feb-05 11:33N 38°02' E 023°32'0 0.0
2016-Feb-05 10:33N 38°02' E 023°32'0 0.0
2016-Feb-05 09:33N 38°02' E 023°32'0 0.0
2016-Feb-05 08:33N 38°02' E 023°32'0 0.0
2016-Feb-05 07:33N 38°02' E 023°32'0 0.0
2016-Feb-05 06:33N 38°02' E 023°32'0 0.0
2016-Feb-05 05:33N 38°02' E 023°32'0 0.1
2016-Feb-05 04:33N 38°02' E 023°32'0 0.0
2016-Feb-05 03:28N 38°02' E 023°32'0 0.1
2016-Feb-05 02:30N 38°02' E 023°32'0 0.0
2016-Feb-05 01:32N 38°02' E 023°32'0 0.0
2016-Feb-05 00:32N 38°02' E 023°32'0 0.0
2016-Feb-04 23:33N 38°02' E 023°32'0 0.0
2016-Feb-04 22:33N 38°02' E 023°32'0 0.0
2016-Feb-04 21:33N 38°02' E 023°32'0 0.1
2016-Feb-04 20:20N 38°02' E 023°32'0 0.0
2016-Feb-04 18:27N 38°02' E 023°32'0 0.0
2016-Feb-04 16:32N 38°02' E 023°32'3 2.8
2016-Feb-04 15:33N 37°59' E 023°33'8 8.1
2016-Feb-04 14:34N 37°53' E 023°38'1010.3
2016-Feb-04 13:34N 37°43' E 023°44'8 8.1
2016-Feb-04 12:34N 37°39' E 023°53'44 8.4
2016-Feb-04 07:19N 37°42' E 024°48'7 8.7
2016-Feb-04 06:33N 37°40' E 024°56'9 8.6
2016-Feb-04 05:34N 37°44' E 025°06'9 8.9
2016-Feb-04 04:34N 37°48' E 025°16'9 9.1
2016-Feb-04 03:33N 37°52' E 025°26'28 0.7
2016-Feb-02 13:33N 37°40' E 025°58'10 9.7
2016-Feb-02 12:33N 37°31' E 025°54'1010.4
2016-Feb-02 11:33N 37°21' E 025°50'10 9.7
2016-Feb-02 10:33N 37°12' E 025°46'9 9.1
2016-Feb-02 09:33N 37°03' E 025°44'10 9.4
2016-Feb-02 08:31N 36°53' E 025°44'31 9.4
2016-Feb-02 05:14N 36°24' E 025°32'19 9.1
2016-Feb-02 03:08N 36°06' E 025°24'24 9.2
2016-Feb-02 00:31N 35°43' E 025°14'135 4.7
2016-Jan-31 19:33N 37°38' E 023°46'9 9.2
2016-Jan-31 18:33N 37°45' E 023°39'9 9.3
2016-Jan-31 17:33N 37°54' E 023°36'7 6.6
2016-Jan-31 16:33N 38°01' E 023°34'1 1.4
2016-Jan-31 15:32N 38°01' E 023°36'0 0.0
2016-Jan-31 12:32N 38°01' E 023°36'0 0.0
2016-Jan-31 09:26N 38°01' E 023°36'0 0.0
2016-Jan-31 05:20N 38°01' E 023°36'0 0.0
2016-Jan-31 03:26N 38°01' E 023°36'0 0.2
2016-Jan-31 00:31N 38°01' E 023°35'2 2.0
2016-Jan-30 23:34N 38°01' E 023°33'1 0.5
2016-Jan-30 21:07N 38°02' E 023°32'0 0.0
2016-Jan-30 20:25N 38°02' E 023°32'0 0.0
2016-Jan-30 19:22N 38°02' E 023°32'0 0.0
2016-Jan-30 18:25N 38°02' E 023°32'0 0.0
2016-Jan-30 17:31N 38°02' E 023°32'0 0.0
2016-Jan-30 16:31N 38°02' E 023°32'0 0.0
2016-Jan-30 15:31N 38°02' E 023°32'0 0.0
2016-Jan-30 14:31N 38°02' E 023°32'0 0.0
2016-Jan-30 13:31N 38°02' E 023°32'0 0.0
2016-Jan-30 12:31N 38°02' E 023°32'0 0.0
2016-Jan-30 11:28N 38°02' E 023°32'0 0.0
2016-Jan-30 10:25N 38°02' E 023°32'0 0.0
2016-Jan-30 09:10N 38°02' E 023°32'0 0.0
2016-Jan-30 08:22N 38°02' E 023°32'0 0.0
2016-Jan-30 07:31N 38°02' E 023°32'0 0.0
2016-Jan-30 06:31N 38°02' E 023°32'0 0.0
2016-Jan-30 05:31N 38°02' E 023°32'0 0.0
2016-Jan-30 04:31N 38°02' E 023°32'0 0.0
2016-Jan-30 03:31N 38°02' E 023°32'0 0.0
2016-Jan-30 02:31N 38°02' E 023°32'0 0.0
2016-Jan-30 01:31N 38°02' E 023°32'0 0.0
2016-Jan-30 00:31N 38°02' E 023°32'0 0.0
2016-Jan-29 23:31N 38°02' E 023°32'0 0.0
2016-Jan-29 22:31N 38°02' E 023°32'0 0.0
2016-Jan-29 21:31N 38°02' E 023°32'0 0.0
2016-Jan-29 19:31N 38°02' E 023°32'0 0.0
2016-Jan-29 18:25N 38°02' E 023°32'0 0.0
2016-Jan-29 17:31N 38°02' E 023°32'0 0.1
2016-Jan-29 16:33N 38°02' E 023°32'0 0.0
2016-Jan-29 15:31N 38°02' E 023°32'0 0.0
2016-Jan-29 14:32N 38°02' E 023°32'0 0.1
2016-Jan-29 13:33N 38°02' E 023°32'0 0.1
2016-Jan-29 12:33N 38°02' E 023°32'0 0.0
2016-Jan-29 11:33N 38°02' E 023°32'0 0.0
2016-Jan-29 10:33N 38°02' E 023°32'0 0.0
2016-Jan-29 09:33N 38°02' E 023°32'0 0.0
2016-Jan-29 08:33N 38°02' E 023°32'0 0.0
2016-Jan-29 07:33N 38°02' E 023°32'0 0.1
2016-Jan-29 06:33N 38°02' E 023°32'0 0.0
2016-Jan-29 05:33N 38°02' E 023°32'0 0.0
2016-Jan-29 04:33N 38°02' E 023°32'0 0.0
2016-Jan-29 03:33N 38°02' E 023°32'0 0.0
2016-Jan-29 02:27N 38°02' E 023°32'0 0.0
2016-Jan-29 01:31N 38°02' E 023°32'0 0.0
2016-Jan-29 00:33N 38°02' E 023°32'0 0.0
2016-Jan-28 23:33N 38°02' E 023°32'0 0.0
2016-Jan-28 22:33N 38°02' E 023°32'0 0.0
2016-Jan-28 21:33N 38°02' E 023°32'0 0.0
2016-Jan-28 20:33N 38°02' E 023°32'0 0.0
2016-Jan-28 19:31N 38°02' E 023°32'0 0.0
2016-Jan-28 18:33N 38°02' E 023°32'0 0.0
2016-Jan-28 17:26N 38°02' E 023°32'0 0.0
2016-Jan-28 16:31N 38°02' E 023°32'0 0.0
2016-Jan-28 15:33N 38°02' E 023°32'0 0.0
2016-Jan-28 14:34N 38°02' E 023°32'  
Track history (hours):
 
Tides and Currents Weather Stations Pressure Air Temp Water Temp Dewpoint Dewpoint Depression Visibility Wind Speed Wind Dir Waves Ship Positions

Eviapetrol II

Last reported at 2016-Feb-07 14:08 UTC. Time now 2016-Feb-08 07:57 UTC.
Position N 37°44' E 024°17'.

Length 78 m; draft 4.3 m.

Type: Tanker. MMSI: 240493000.

Date/timePositionNaut miles runAvg speedWind from/ knotsBaromVisibWave heightAir tempDewpointWater temp
2016-Feb-07 14:08N 37°44' E 024°17'22 7.9
2016-Feb-07 11:23N 37°38' E 023°51'7 8.7
2016-Feb-07 10:33N 37°40' E 023°42'9 9.1
2016-Feb-07 09:33N 37°48' E 023°37'9 8.9
2016-Feb-07 08:33N 37°57' E 023°35'5 4.8
2016-Feb-07 07:33N 38°02' E 023°36'0 0.0
2016-Feb-07 02:17N 38°02' E 023°36'0 0.0
2016-Feb-07 01:29N 38°02' E 023°36'0 0.0
2016-Feb-07 00:29N 38°02' E 023°36'0 0.0
2016-Feb-06 23:32N 38°02' E 023°36'0 0.0
2016-Feb-06 22:32N 38°02' E 023°36'0 0.0
2016-Feb-06 21:17N 38°02' E 023°36'0 0.0
2016-Feb-06 20:29N 38°02' E 023°36'0 0.0
2016-Feb-06 19:32N 38°02' E 023°36'0 0.0
2016-Feb-06 18:32N 38°02' E 023°36'0 0.0
2016-Feb-06 17:32N 38°02' E 023°36'0 0.5
2016-Feb-06 16:33N 38°02' E 023°35'3 2.6
2016-Feb-06 15:33N 38°02' E 023°32'0 0.0
2016-Feb-06 14:33N 38°02' E 023°32'0 0.0
2016-Feb-06 13:33N 38°02' E 023°32'0 0.0
2016-Feb-06 12:33N 38°02' E 023°32'0 0.0
2016-Feb-06 11:33N 38°02' E 023°32'0 0.0
2016-Feb-06 10:33N 38°02' E 023°32'0 0.0
2016-Feb-06 09:33N 38°02' E 023°32'0 0.0
2016-Feb-06 08:33N 38°02' E 023°32'0 0.0
2016-Feb-06 07:34N 38°02' E 023°32'0 0.0
2016-Feb-06 06:33N 38°02' E 023°32'0 0.0
2016-Feb-06 05:33N 38°02' E 023°32'0 0.0
2016-Feb-06 04:33N 38°02' E 023°32'0 0.0
2016-Feb-06 03:33N 38°02' E 023°32'0 0.0
2016-Feb-06 02:32N 38°02' E 023°32'0 0.0
2016-Feb-06 01:29N 38°02' E 023°32'0 0.0
2016-Feb-06 00:27N 38°02' E 023°32'0 0.0
2016-Feb-05 22:33N 38°02' E 023°32'0 0.0
2016-Feb-05 21:33N 38°02' E 023°32'0 0.0
2016-Feb-05 20:33N 38°02' E 023°32'0 0.0
2016-Feb-05 19:33N 38°02' E 023°32'0 0.0
2016-Feb-05 18:33N 38°02' E 023°32'0 0.0
2016-Feb-05 17:33N 38°02' E 023°32'0 0.0
2016-Feb-05 16:33N 38°02' E 023°32'0 0.0
2016-Feb-05 15:33N 38°02' E 023°32'0 0.0
2016-Feb-05 14:34N 38°02' E 023°32'0 0.0
2016-Feb-05 13:33N 38°02' E 023°32'0 0.0
2016-Feb-05 12:33N 38°02' E 023°32'0 0.0
2016-Feb-05 11:33N 38°02' E 023°32'0 0.0
2016-Feb-05 10:33N 38°02' E 023°32'0 0.0
2016-Feb-05 09:33N 38°02' E 023°32'0 0.0
2016-Feb-05 08:33N 38°02' E 023°32'0 0.0
2016-Feb-05 07:33N 38°02' E 023°32'0 0.0
2016-Feb-05 06:33N 38°02' E 023°32'0 0.0
2016-Feb-05 05:33N 38°02' E 023°32'0 0.1
2016-Feb-05 04:33N 38°02' E 023°32'0 0.0
2016-Feb-05 03:28N 38°02' E 023°32'0 0.1
2016-Feb-05 02:30N 38°02' E 023°32'0 0.0
2016-Feb-05 01:32N 38°02' E 023°32'0 0.0
2016-Feb-05 00:32N 38°02' E 023°32'0 0.0
2016-Feb-04 23:33N 38°02' E 023°32'0 0.0
2016-Feb-04 22:33N 38°02' E 023°32'0 0.0
2016-Feb-04 21:33N 38°02' E 023°32'0 0.1
2016-Feb-04 20:20N 38°02' E 023°32'0 0.0
2016-Feb-04 18:27N 38°02' E 023°32'0 0.0
2016-Feb-04 16:32N 38°02' E 023°32'3 2.8
2016-Feb-04 15:33N 37°59' E 023°33'8 8.1
2016-Feb-04 14:34N 37°53' E 023°38'1010.3
2016-Feb-04 13:34N 37°43' E 023°44'8 8.1
2016-Feb-04 12:34N 37°39' E 023°53'44 8.4
2016-Feb-04 07:19N 37°42' E 024°48'7 8.7
2016-Feb-04 06:33N 37°40' E 024°56'9 8.6
2016-Feb-04 05:34N 37°44' E 025°06'9 8.9
2016-Feb-04 04:34N 37°48' E 025°16'9 9.1
2016-Feb-04 03:33N 37°52' E 025°26'28 0.7
2016-Feb-02 13:33N 37°40' E 025°58'10 9.7
2016-Feb-02 12:33N 37°31' E 025°54'1010.4
2016-Feb-02 11:33N 37°21' E 025°50'10 9.7
2016-Feb-02 10:33N 37°12' E 025°46'9 9.1
2016-Feb-02 09:33N 37°03' E 025°44'10 9.4
2016-Feb-02 08:31N 36°53' E 025°44'31 9.4
2016-Feb-02 05:14N 36°24' E 025°32'19 9.1
2016-Feb-02 03:08N 36°06' E 025°24'24 9.2
2016-Feb-02 00:31N 35°43' E 025°14'135 4.7
2016-Jan-31 19:33N 37°38' E 023°46'9 9.2
2016-Jan-31 18:33N 37°45' E 023°39'9 9.3
2016-Jan-31 17:33N 37°54' E 023°36'7 6.6
2016-Jan-31 16:33N 38°01' E 023°34'1 1.4
2016-Jan-31 15:32N 38°01' E 023°36'0 0.0
2016-Jan-31 12:32N 38°01' E 023°36'0 0.0
2016-Jan-31 09:26N 38°01' E 023°36'0 0.0
2016-Jan-31 05:20N 38°01' E 023°36'0 0.0
2016-Jan-31 03:26N 38°01' E 023°36'0 0.2
2016-Jan-31 00:31N 38°01' E 023°35'2 2.0
2016-Jan-30 23:34N 38°01' E 023°33'1 0.5
2016-Jan-30 21:07N 38°02' E 023°32'0 0.0
2016-Jan-30 20:25N 38°02' E 023°32'0 0.0
2016-Jan-30 19:22N 38°02' E 023°32'0 0.0
2016-Jan-30 18:25N 38°02' E 023°32'0 0.0
2016-Jan-30 17:31N 38°02' E 023°32'0 0.0
2016-Jan-30 16:31N 38°02' E 023°32'0 0.0
2016-Jan-30 15:31N 38°02' E 023°32'0 0.0
2016-Jan-30 14:31N 38°02' E 023°32'0 0.0
2016-Jan-30 13:31N 38°02' E 023°32'0 0.0
2016-Jan-30 12:31N 38°02' E 023°32'0 0.0
2016-Jan-30 11:28N 38°02' E 023°32'0 0.0
2016-Jan-30 10:25N 38°02' E 023°32'0 0.0
2016-Jan-30 09:10N 38°02' E 023°32'0 0.0
2016-Jan-30 08:22N 38°02' E 023°32'0 0.0
2016-Jan-30 07:31N 38°02' E 023°32'0 0.0
2016-Jan-30 06:31N 38°02' E 023°32'0 0.0
2016-Jan-30 05:31N 38°02' E 023°32'0 0.0
2016-Jan-30 04:31N 38°02' E 023°32'0 0.0
2016-Jan-30 03:31N 38°02' E 023°32'0 0.0
2016-Jan-30 02:31N 38°02' E 023°32'0 0.0
2016-Jan-30 01:31N 38°02' E 023°32'0 0.0
2016-Jan-30 00:31N 38°02' E 023°32'0 0.0
2016-Jan-29 23:31N 38°02' E 023°32'0 0.0
2016-Jan-29 22:31N 38°02' E 023°32'0 0.0
2016-Jan-29 21:31N 38°02' E 023°32'0 0.0
2016-Jan-29 19:31N 38°02' E 023°32'0 0.0
2016-Jan-29 18:25N 38°02' E 023°32'0 0.0
2016-Jan-29 17:31N 38°02' E 023°32'0 0.1
2016-Jan-29 16:33N 38°02' E 023°32'0 0.0
2016-Jan-29 15:31N 38°02' E 023°32'0 0.0
2016-Jan-29 14:32N 38°02' E 023°32'0 0.1
2016-Jan-29 13:33N 38°02' E 023°32'0 0.1
2016-Jan-29 12:33N 38°02' E 023°32'0 0.0
2016-Jan-29 11:33N 38°02' E 023°32'0 0.0
2016-Jan-29 10:33N 38°02' E 023°32'0 0.0
2016-Jan-29 09:33N 38°02' E 023°32'0 0.0
2016-Jan-29 08:33N 38°02' E 023°32'0 0.0
2016-Jan-29 07:33N 38°02' E 023°32'0 0.1
2016-Jan-29 06:33N 38°02' E 023°32'0 0.0
2016-Jan-29 05:33N 38°02' E 023°32'0 0.0
2016-Jan-29 04:33N 38°02' E 023°32'0 0.0
2016-Jan-29 03:33N 38°02' E 023°32'0 0.0
2016-Jan-29 02:27N 38°02' E 023°32'0 0.0
2016-Jan-29 01:31N 38°02' E 023°32'0 0.0
2016-Jan-29 00:33N 38°02' E 023°32'0 0.0
2016-Jan-28 23:33N 38°02' E 023°32'0 0.0
2016-Jan-28 22:33N 38°02' E 023°32'0 0.0
2016-Jan-28 21:33N 38°02' E 023°32'0 0.0
2016-Jan-28 20:33N 38°02' E 023°32'0 0.0
2016-Jan-28 19:31N 38°02' E 023°32'0 0.0
2016-Jan-28 18:33N 38°02' E 023°32'0 0.0
2016-Jan-28 17:26N 38°02' E 023°32'0 0.0
2016-Jan-28 16:31N 38°02' E 023°32'0 0.0
2016-Jan-28 15:33N 38°02' E 023°32'0 0.0
2016-Jan-28 14:34N 38°02' E 023°32'  

Dump ship's entire track history